createdAt,value
2018-12-01T00:00:43.158Z,215.1
2018-12-01T00:01:43.187Z,215
2018-12-01T00:02:43.008Z,215
2018-12-01T00:03:43.063Z,215
2018-12-01T00:04:43.092Z,215
2018-12-01T00:05:43.152Z,215
2018-12-01T00:06:43.068Z,215
2018-12-01T00:07:43.064Z,215
2018-12-01T00:08:43.087Z,215
2018-12-01T00:09:43.086Z,215
2018-12-01T00:10:43.109Z,215
2018-12-01T00:11:43.232Z,215
2018-12-01T00:12:43.139Z,215
2018-12-01T00:13:43.142Z,215
2018-12-01T00:14:43.117Z,215
2018-12-01T00:15:43.120Z,220.4
2018-12-01T00:16:43.164Z,229.8
2018-12-01T00:17:43.121Z,233.9
2018-12-01T00:18:43.208Z,235.8
2018-12-01T00:19:43.080Z,236.7
2018-12-01T00:20:43.152Z,237.1
2018-12-01T00:21:43.219Z,237.3
2018-12-01T00:22:43.192Z,237.4
2018-12-01T00:23:43.208Z,237.5
2018-12-01T00:24:43.166Z,247
2018-12-01T00:25:43.080Z,285.1
2018-12-01T00:26:43.200Z,310.8
2018-12-01T00:27:43.128Z,320.5
2018-12-01T00:28:43.144Z,324.4
2018-12-01T00:29:43.219Z,326.1
2018-12-01T00:30:43.068Z,326.8
2018-12-01T00:31:43.168Z,327.2
2018-12-01T00:32:43.138Z,327.4
2018-12-01T00:33:43.131Z,302.4
2018-12-01T00:34:43.191Z,286.3
2018-12-01T00:35:43.063Z,285.5
2018-12-01T00:36:43.114Z,298.4
2018-12-01T00:37:43.126Z,280.3
2018-12-01T00:38:43.209Z,326
2018-12-01T00:39:43.116Z,347.8
2018-12-01T00:40:43.145Z,349.2
2018-12-01T00:41:43.070Z,349.6
2018-12-01T00:42:43.132Z,349.8
2018-12-01T00:43:43.188Z,352.5
2018-12-01T00:44:43.579Z,33.6
2018-12-01T00:45:43.132Z,47.8
2018-12-01T00:46:43.057Z,4.4
2018-12-01T00:47:43.166Z,323.6
2018-12-01T00:48:43.114Z,340.6
2018-12-01T00:49:43.192Z,346.1
2018-12-01T00:50:43.212Z,348.3
2018-12-01T00:51:43.092Z,335.7
2018-12-01T00:52:43.191Z,318.5
2018-12-01T00:53:43.131Z,334.4
2018-12-01T00:54:43.116Z,343
2018-12-01T00:55:43.108Z,346.9
2018-12-01T00:56:43.116Z,348.6
2018-12-01T00:57:43.122Z,349.3
2018-12-01T00:58:43.112Z,349.7
2018-12-01T00:59:43.124Z,349.9
2018-12-01T01:00:43.100Z,349.9
2018-12-01T01:01:43.332Z,350
2018-12-01T01:02:43.073Z,350
2018-12-01T01:03:43.050Z,350
2018-12-01T01:04:43.099Z,350
2018-12-01T01:05:43.113Z,350
2018-12-01T01:06:43.173Z,350
2018-12-01T01:07:43.114Z,350
2018-12-01T01:08:43.035Z,350
2018-12-01T01:09:43.118Z,350
2018-12-01T01:10:43.119Z,350
2018-12-01T01:11:43.197Z,350
2018-12-01T01:12:43.140Z,350
2018-12-01T01:13:43.070Z,350
2018-12-01T01:14:43.112Z,350
2018-12-01T01:15:43.135Z,350
2018-12-01T01:16:43.117Z,350
2018-12-01T01:17:43.104Z,350
2018-12-01T01:18:43.121Z,350
2018-12-01T01:19:43.223Z,350
2018-12-01T01:20:43.120Z,333.4
2018-12-01T01:21:43.093Z,315.9
2018-12-01T01:22:44.363Z,317.6
2018-12-01T01:23:43.100Z,334.9
2018-12-01T01:24:43.197Z,330.1
2018-12-01T01:25:43.075Z,341.5
2018-12-01T01:26:43.084Z,346.3
2018-12-01T01:27:43.111Z,348.3
2018-12-01T01:28:43.152Z,349.2
2018-12-01T01:29:43.120Z,349.6
2018-12-01T01:30:43.048Z,349.8
2018-12-01T01:31:43.091Z,349.9
2018-12-01T01:32:43.097Z,350
2018-12-01T01:33:43.150Z,350
2018-12-01T01:34:43.153Z,350
2018-12-01T01:35:43.016Z,350
2018-12-01T01:36:43.085Z,350
2018-12-01T01:37:43.147Z,350
2018-12-01T01:38:43.143Z,350
2018-12-01T01:39:43.368Z,350
2018-12-01T01:40:43.051Z,350
2018-12-01T01:41:43.123Z,350
2018-12-01T01:42:43.100Z,350
2018-12-01T01:43:44.168Z,350
2018-12-01T01:44:43.095Z,350
2018-12-01T01:45:43.091Z,348.8
2018-12-01T01:46:43.069Z,349.5
2018-12-01T01:47:43.095Z,349.7
2018-12-01T01:48:43.082Z,349.9
2018-12-01T01:49:43.184Z,349.9
2018-12-01T01:50:43.085Z,350
2018-12-01T01:51:43.082Z,350
2018-12-01T01:52:43.115Z,350
2018-12-01T01:53:43.091Z,350
2018-12-01T01:54:43.099Z,350
2018-12-01T01:55:43.167Z,350
2018-12-01T01:56:43.085Z,350
2018-12-01T01:57:43.004Z,350
2018-12-01T01:58:43.105Z,350
2018-12-01T01:59:43.086Z,350
2018-12-01T02:00:43.159Z,350
2018-12-01T02:01:43.093Z,350
2018-12-01T02:02:43.030Z,350
2018-12-01T02:03:43.082Z,350
2018-12-01T02:04:43.143Z,350
2018-12-01T02:05:45.174Z,350
2018-12-01T02:06:43.099Z,350
2018-12-01T02:07:43.289Z,350
2018-12-01T02:08:43.015Z,350
2018-12-01T02:09:43.096Z,350
2018-12-01T02:10:43.082Z,336.1
2018-12-01T02:11:43.088Z,14.2
2018-12-01T02:12:43.145Z,57.9
2018-12-01T02:13:43.024Z,8.9
2018-12-01T02:14:43.051Z,354.1
2018-12-01T02:15:43.163Z,351.5
2018-12-01T02:16:43.092Z,350.6
2018-12-01T02:17:43.095Z,350.3
2018-12-01T02:18:43.077Z,350.1
2018-12-01T02:19:43.014Z,350.1
2018-12-01T02:20:43.149Z,350
2018-12-01T02:21:43.077Z,341.6
2018-12-01T02:22:43.080Z,273.8
2018-12-01T02:23:43.084Z,259.4
2018-12-01T02:24:43.003Z,259.8
2018-12-01T02:25:43.167Z,226
2018-12-01T02:26:43.120Z,194
2018-12-01T02:27:43.089Z,193.1
2018-12-01T02:28:43.071Z,192.8
2018-12-01T02:29:43.066Z,192.6
2018-12-01T02:30:43.045Z,192.6
2018-12-01T02:31:43.153Z,192.5
2018-12-01T02:32:43.083Z,192.5
2018-12-01T02:33:43.065Z,192.5
2018-12-01T02:34:43.066Z,192.5
2018-12-01T02:35:43.066Z,192.5
2018-12-01T02:36:43.091Z,192.5
2018-12-01T02:37:43.095Z,192.5
2018-12-01T02:38:43.193Z,192.5
2018-12-01T02:39:43.078Z,192.5
2018-12-01T02:40:43.013Z,192.5
2018-12-01T02:41:43.013Z,192.5
2018-12-01T02:42:43.070Z,192.5
2018-12-01T02:43:43.114Z,192.5
2018-12-01T02:44:43.069Z,192.5
2018-12-01T02:45:43.091Z,192.5
2018-12-01T02:46:43.001Z,192.5
2018-12-01T02:47:43.112Z,185.8
2018-12-01T02:48:43.059Z,166.9
2018-12-01T02:49:43.053Z,168.8
2018-12-01T02:50:43.183Z,165.2
2018-12-01T02:51:42.999Z,164.9
2018-12-01T02:52:43.131Z,167.6
2018-12-01T02:53:43.042Z,168.9
2018-12-01T02:54:43.057Z,169.5
2018-12-01T02:55:43.113Z,169.8
2018-12-01T02:56:43.075Z,169.9
2018-12-01T02:57:42.989Z,169.9
2018-12-01T02:58:43.109Z,157
2018-12-01T02:59:43.068Z,157.7
2018-12-01T03:00:43.126Z,164.5
2018-12-01T03:01:43.064Z,167.5
2018-12-01T03:02:43.010Z,168.9
2018-12-01T03:03:43.103Z,169.5
2018-12-01T03:04:43.049Z,169.7
2018-12-01T03:05:43.050Z,169.9
2018-12-01T03:06:43.055Z,169.9
2018-12-01T03:07:43.053Z,170
2018-12-01T03:08:43.060Z,168.9
2018-12-01T03:09:43.051Z,141.3
2018-12-01T03:10:43.112Z,3.6
2018-12-01T03:11:43.063Z,294
2018-12-01T03:12:43.056Z,277.8
2018-12-01T03:13:43.043Z,269.9
2018-12-01T03:14:43.046Z,237.8
2018-12-01T03:15:43.054Z,202.5
2018-12-01T03:16:43.097Z,182.7
2018-12-01T03:17:43.068Z,175.6
2018-12-01T03:18:43.123Z,172.5
2018-12-01T03:19:43.043Z,171.1
2018-12-01T03:20:43.052Z,170.5
2018-12-01T03:21:43.081Z,170.2
2018-12-01T03:22:43.052Z,170.1
2018-12-01T03:23:43.111Z,170.1
2018-12-01T03:24:42.966Z,170
2018-12-01T03:25:43.038Z,170
2018-12-01T03:26:43.051Z,170
2018-12-01T03:27:43.039Z,170
2018-12-01T03:28:43.095Z,170
2018-12-01T03:29:43.023Z,170
2018-12-01T03:30:42.996Z,170
2018-12-01T03:31:43.176Z,170
2018-12-01T03:32:43.038Z,170
2018-12-01T03:33:43.014Z,170
2018-12-01T03:34:43.031Z,170
2018-12-01T03:35:43.018Z,170
2018-12-01T03:36:43.023Z,170
2018-12-01T03:37:43.085Z,170
2018-12-01T03:38:43.036Z,170
2018-12-01T03:39:43.023Z,161.1
2018-12-01T03:40:43.052Z,153.6
2018-12-01T03:41:42.961Z,161.9
2018-12-01T03:42:43.041Z,166.3
2018-12-01T03:43:43.037Z,168.3
2018-12-01T03:44:43.014Z,169.2
2018-12-01T03:45:43.173Z,169.6
2018-12-01T03:46:42.962Z,169.8
2018-12-01T03:47:43.033Z,169.9
2018-12-01T03:48:43.038Z,170
2018-12-01T03:49:43.034Z,170
2018-12-01T03:50:43.109Z,170
2018-12-01T03:51:42.999Z,170
2018-12-01T03:52:43.082Z,170
2018-12-01T03:53:43.016Z,170
2018-12-01T03:54:43.018Z,170
2018-12-01T03:55:43.077Z,170
2018-12-01T03:56:43.019Z,170
2018-12-01T03:57:42.947Z,170
2018-12-01T03:58:43.073Z,170
2018-12-01T03:59:43.005Z,170
2018-12-01T04:00:43.018Z,170
2018-12-01T04:01:43.036Z,170
2018-12-01T04:02:44.804Z,170
2018-12-01T04:03:43.061Z,170
2018-12-01T04:04:43.070Z,170
2018-12-01T04:05:43.020Z,170
2018-12-01T04:06:43.043Z,170
2018-12-01T04:07:43.030Z,170
2018-12-01T04:08:42.998Z,170
2018-12-01T04:09:43.031Z,170
2018-12-01T04:10:43.077Z,170
2018-12-01T04:11:43.009Z,170
2018-12-01T04:12:43.091Z,170
2018-12-01T04:13:42.955Z,170
2018-12-01T04:14:43.037Z,170
2018-12-01T04:15:42.999Z,170
2018-12-01T04:16:43.009Z,170
2018-12-01T04:17:43.077Z,170
2018-12-01T04:18:43.036Z,170
2018-12-01T04:19:42.945Z,170
2018-12-01T04:20:43.075Z,170
2018-12-01T04:21:43.027Z,170
2018-12-01T04:22:43.016Z,170
2018-12-01T04:23:43.004Z,170
2018-12-01T04:24:42.941Z,170
2018-12-01T04:25:43.075Z,170
2018-12-01T04:26:43.078Z,170
2018-12-01T04:27:42.998Z,170
2018-12-01T04:28:43.001Z,170
2018-12-01T04:29:42.954Z,170
2018-12-01T04:30:43.037Z,170
2018-12-01T04:31:43.090Z,170
2018-12-01T04:32:43.057Z,170
2018-12-01T04:33:43.085Z,170
2018-12-01T04:34:43.012Z,170
2018-12-01T04:35:42.980Z,170
2018-12-01T04:36:43.022Z,170
2018-12-01T04:37:43.026Z,170
2018-12-01T04:38:43.004Z,170
2018-12-01T04:39:43.067Z,170
2018-12-01T04:40:42.959Z,170
2018-12-01T04:41:43.089Z,170
2018-12-01T04:42:42.997Z,170
2018-12-01T04:43:43.016Z,170
2018-12-01T04:44:42.993Z,170
2018-12-01T04:45:42.994Z,170
2018-12-01T04:46:42.989Z,170
2018-12-01T04:47:43.062Z,170
2018-12-01T04:48:43.000Z,170
2018-12-01T04:49:42.972Z,157.1
2018-12-01T04:50:42.994Z,139.5
2018-12-01T04:51:42.941Z,131.5
2018-12-01T04:52:43.078Z,137.4
2018-12-01T04:53:42.987Z,137.8
2018-12-01T04:54:42.994Z,130.9
2018-12-01T04:55:43.084Z,127.7
2018-12-01T04:56:42.992Z,126.3
2018-12-01T04:57:42.985Z,125.6
2018-12-01T04:58:43.069Z,125.3
2018-12-01T04:59:42.992Z,125.1
2018-12-01T05:00:42.996Z,125.1
2018-12-01T05:01:42.989Z,125
2018-12-01T05:02:42.991Z,125
2018-12-01T05:03:42.981Z,125
2018-12-01T05:04:43.005Z,125
2018-12-01T05:05:43.062Z,125
2018-12-01T05:06:42.973Z,125
2018-12-01T05:07:43.887Z,125
2018-12-01T05:08:42.919Z,125
2018-12-01T05:09:42.987Z,125
2018-12-01T05:10:42.985Z,124.7
2018-12-01T05:11:43.032Z,176
2018-12-01T05:12:42.972Z,241.4
2018-12-01T05:13:42.927Z,253.8
2018-12-01T05:14:42.978Z,257.5
2018-12-01T05:15:43.058Z,258.9
2018-12-01T05:16:42.996Z,259.5
2018-12-01T05:17:43.007Z,259.8
2018-12-01T05:18:42.940Z,259.9
2018-12-01T05:19:42.967Z,260
2018-12-01T05:20:43.096Z,269.6
2018-12-01T05:21:43.000Z,275.6
2018-12-01T05:22:42.998Z,283.4
2018-12-01T05:23:42.972Z,285.7
2018-12-01T05:24:43.001Z,279.7
2018-12-01T05:25:42.972Z,268.9
2018-12-01T05:26:43.687Z,276.7
2018-12-01T05:27:42.980Z,274
2018-12-01T05:28:42.979Z,290.9
2018-12-01T05:29:42.977Z,298.7
2018-12-01T05:30:42.924Z,302.1
2018-12-01T05:31:43.040Z,303.7
2018-12-01T05:32:42.987Z,304.4
2018-12-01T05:33:43.041Z,304.7
2018-12-01T05:34:42.964Z,304.9
2018-12-01T05:35:42.983Z,304.9
2018-12-01T05:36:42.966Z,305
2018-12-01T05:37:42.981Z,305
2018-12-01T05:38:42.975Z,305
2018-12-01T05:39:42.993Z,305
2018-12-01T05:40:43.041Z,305
2018-12-01T05:41:43.858Z,305
2018-12-01T05:42:42.966Z,305
2018-12-01T05:43:42.984Z,305
2018-12-01T05:44:42.992Z,305
2018-12-01T05:45:43.036Z,305
2018-12-01T05:46:42.912Z,305
2018-12-01T05:47:43.040Z,305
2018-12-01T05:48:42.979Z,305
2018-12-01T05:49:43.083Z,316.5
2018-12-01T05:50:42.914Z,322.5
2018-12-01T05:51:43.030Z,325.2
2018-12-01T05:52:42.899Z,326.4
2018-12-01T05:53:42.957Z,327
2018-12-01T05:54:43.031Z,327.3
2018-12-01T05:55:42.972Z,327.4
2018-12-01T05:56:42.962Z,327.4
2018-12-01T05:57:42.900Z,330.1
2018-12-01T05:58:43.024Z,311
2018-12-01T05:59:42.962Z,277.9
2018-12-01T06:00:42.944Z,225.5
2018-12-01T06:01:42.960Z,187.8
2018-12-01T06:02:42.891Z,176.9
2018-12-01T06:03:43.191Z,173
2018-12-01T06:04:43.303Z,171.3
2018-12-01T06:05:42.897Z,170.6
2018-12-01T06:06:42.951Z,170.3
2018-12-01T06:07:42.952Z,170.1
2018-12-01T06:08:42.968Z,170.1
2018-12-01T06:09:42.991Z,170
2018-12-01T06:10:42.951Z,170
2018-12-01T06:11:42.995Z,170
2018-12-01T06:12:42.965Z,170
2018-12-01T06:13:42.972Z,170
2018-12-01T06:14:43.012Z,170
2018-12-01T06:15:43.035Z,170
2018-12-01T06:16:43.010Z,170
2018-12-01T06:17:42.931Z,170
2018-12-01T06:18:42.920Z,170
2018-12-01T06:19:42.970Z,170
2018-12-01T06:20:42.957Z,170
2018-12-01T06:21:43.008Z,170
2018-12-01T06:22:43.049Z,170
2018-12-01T06:23:42.955Z,170
2018-12-01T06:24:42.883Z,170
2018-12-01T06:25:42.959Z,170
2018-12-01T06:26:42.945Z,170
2018-12-01T06:27:43.001Z,170
2018-12-01T06:28:42.956Z,170
2018-12-01T06:29:42.899Z,170
2018-12-01T06:30:43.129Z,170
2018-12-01T06:31:47.429Z,170
2018-12-01T06:32:43.259Z,170
2018-12-01T06:33:43.250Z,170
2018-12-01T06:34:43.203Z,170
2018-12-01T06:35:43.250Z,170
2018-12-01T06:36:43.374Z,175
2018-12-01T06:37:43.148Z,195
2018-12-01T06:38:43.287Z,193.6
2018-12-01T06:39:43.144Z,203.4
2018-12-01T06:40:43.243Z,194
2018-12-01T06:41:43.378Z,193.2
2018-12-01T06:42:43.330Z,192.8
2018-12-01T06:43:43.295Z,192.6
2018-12-01T06:44:43.409Z,203.8
2018-12-01T06:45:43.255Z,209.3
2018-12-01T06:46:43.185Z,212.4
2018-12-01T06:47:43.426Z,213.8
2018-12-01T06:48:43.229Z,221.7
2018-12-01T06:49:43.218Z,230.7
2018-12-01T06:50:43.141Z,232.4
2018-12-01T06:51:44.171Z,239.1
2018-12-01T06:52:43.261Z,232.5
2018-12-01T06:53:43.474Z,234.3
2018-12-01T06:54:43.175Z,236.7
2018-12-01T06:55:43.265Z,233.4
2018-12-01T06:56:47.852Z,235.1
2018-12-01T06:57:43.251Z,235.5
2018-12-01T06:58:43.240Z,234
2018-12-01T06:59:43.557Z,215.3
2018-12-01T07:00:43.388Z,188.8
2018-12-01T07:01:45.447Z,184.7
2018-12-01T07:02:43.077Z,193.7
2018-12-01T07:03:45.557Z,205.3
2018-12-01T07:04:43.196Z,197.6
2018-12-01T07:05:43.005Z,194.3
2018-12-01T07:06:43.165Z,193.3
2018-12-01T07:07:44.080Z,181.1
2018-12-01T07:08:43.190Z,175.3
2018-12-01T07:09:43.241Z,173.5
2018-12-01T07:10:43.356Z,171.6
2018-12-01T07:11:43.210Z,177.5
2018-12-01T07:12:43.208Z,190.9
2018-12-01T07:13:43.200Z,203.8
2018-12-01T07:14:43.660Z,210
2018-12-01T07:15:43.326Z,212.7
2018-12-01T07:16:42.920Z,213.9
2018-12-01T07:17:42.903Z,214.5
2018-12-01T07:18:42.872Z,214.8
2018-12-01T07:19:42.853Z,215.8
2018-12-01T07:20:42.896Z,215.8
2018-12-01T07:21:42.893Z,228.6
2018-12-01T07:22:42.912Z,223.5
2018-12-01T07:23:42.970Z,219.9
2018-12-01T07:24:42.851Z,225.6
2018-12-01T07:25:42.934Z,220
2018-12-01T07:26:42.945Z,222.5
2018-12-01T07:27:42.973Z,229.8
2018-12-01T07:28:42.914Z,232.2
2018-12-01T07:29:42.908Z,225.6
2018-12-01T07:30:49.021Z,221.5
2018-12-01T07:31:42.983Z,227.1
2018-12-01T07:32:42.857Z,224.9
2018-12-01T07:33:42.936Z,222.4
2018-12-01T07:34:42.858Z,221.8
2018-12-01T07:35:42.849Z,220.5
2018-12-01T07:36:42.972Z,231
2018-12-01T07:37:47.799Z,224.6
2018-12-01T07:38:42.917Z,227.7
2018-12-01T07:39:42.909Z,230.2
2018-12-01T07:40:42.916Z,234.7
2018-12-01T07:41:42.851Z,229.1
2018-12-01T07:42:44.986Z,224.4
2018-12-01T07:43:42.847Z,224.6
2018-12-01T07:44:43.004Z,228.2
2018-12-01T07:45:42.845Z,227.1
2018-12-01T07:46:42.857Z,233.2
2018-12-01T07:47:44.158Z,235.2
2018-12-01T07:48:44.670Z,231.8
2018-12-01T07:49:45.497Z,231.7
2018-12-01T07:50:46.390Z,231.4
2018-12-01T07:51:42.947Z,225.5
2018-12-01T07:52:42.920Z,226.3
2018-12-01T07:53:43.322Z,222.9
2018-12-01T07:54:43.251Z,225.6
2018-12-01T07:55:42.908Z,222.1
2018-12-01T07:56:42.884Z,194.8
2018-12-01T07:57:42.846Z,205.7
2018-12-01T07:58:42.949Z,208.3
2018-12-01T07:59:45.480Z,210.8
2018-12-01T08:00:43.039Z,216.4
2018-12-01T08:01:42.939Z,230.2
2018-12-01T08:02:42.852Z,227.2
2018-12-01T08:03:42.907Z,236
2018-12-01T08:04:42.906Z,243.3
2018-12-01T08:05:43.565Z,248.4
2018-12-01T08:06:44.461Z,239.9
2018-12-01T08:07:42.890Z,237.4
2018-12-01T08:08:43.727Z,236.2
2018-12-01T08:10:01.585Z,229.4
2018-12-01T08:10:42.983Z,225.8
2018-12-01T08:11:42.823Z,223.4
2018-12-01T08:12:42.990Z,230.3
2018-12-01T08:13:42.843Z,229.8
2018-12-01T08:14:42.916Z,231.7
2018-12-01T08:15:43.024Z,232.3
2018-12-01T08:16:42.888Z,231.4
2018-12-01T08:17:42.906Z,229
2018-12-01T08:18:42.912Z,233.8
2018-12-01T08:19:47.217Z,228.8
2018-12-01T08:20:45.150Z,228
2018-12-01T08:22:00.060Z,225.7
2018-12-01T08:22:47.931Z,225.4
2018-12-01T08:23:46.846Z,225.3
2018-12-01T08:24:42.846Z,235.2
2018-12-01T08:25:44.026Z,231.9
2018-12-01T08:26:43.027Z,227.7
2018-12-01T08:27:42.913Z,231.5
2018-12-01T08:28:42.903Z,227.3
2018-12-01T08:29:42.868Z,220.1
2018-12-01T08:30:42.980Z,211.1
2018-12-01T08:31:42.935Z,200.5
2018-12-01T08:32:42.940Z,206.7
2018-12-01T08:33:42.919Z,211.3
2018-12-01T08:34:42.913Z,212.1
2018-12-01T08:35:42.908Z,213.6
2018-12-01T08:36:42.909Z,215.4
2018-12-01T08:37:42.907Z,216.3
2018-12-01T08:38:42.912Z,215.6
2018-12-01T08:39:43.095Z,215.3
2018-12-01T08:40:42.836Z,217
2018-12-01T08:41:42.929Z,221.3
2018-12-01T08:42:42.938Z,221.3
2018-12-01T08:43:42.904Z,223.9
2018-12-01T08:44:42.908Z,219.2
2018-12-01T08:45:43.363Z,224.1
2018-12-01T08:46:42.837Z,220
2018-12-01T08:47:42.903Z,222.3
2018-12-01T08:48:42.900Z,222
2018-12-01T08:49:42.890Z,237.3
2018-12-01T08:50:42.965Z,247.5
2018-12-01T08:51:42.823Z,250.6
2018-12-01T08:53:45.170Z,260
2018-12-01T08:54:45.284Z,251.5
2018-12-01T08:55:45.197Z,256.7
2018-12-01T08:56:45.134Z,258.5
2018-12-01T08:57:45.139Z,231.2
2018-12-01T08:58:45.249Z,216.5
2018-12-01T08:59:45.245Z,222.9
2018-12-01T09:00:45.333Z,215.7
2018-12-01T09:01:45.336Z,221.4
2018-12-01T09:02:45.134Z,215
2018-12-01T09:03:45.974Z,194.9
2018-12-01T09:04:45.182Z,180.9
2018-12-01T09:05:45.266Z,174.9
2018-12-01T09:06:45.251Z,183.6
2018-12-01T09:07:45.118Z,192.4
2018-12-01T09:08:45.200Z,230
2018-12-01T09:09:45.146Z,242
2018-12-01T09:10:45.201Z,229.9
2018-12-01T09:11:45.266Z,214.6
2018-12-01T09:12:45.218Z,214.8
2018-12-01T09:13:45.109Z,214.5
2018-12-01T09:14:45.190Z,213.9
2018-12-01T09:15:45.241Z,218.4
2018-12-01T09:16:45.230Z,216.6
2018-12-01T09:17:45.189Z,216
2018-12-01T09:18:45.199Z,205.7
2018-12-01T09:19:45.122Z,185.9
2018-12-01T09:20:45.257Z,177.1
2018-12-01T09:21:45.225Z,173.2
2018-12-01T09:22:45.284Z,171.5
2018-12-01T09:23:45.160Z,170.7
2018-12-01T09:24:45.265Z,170.3
2018-12-01T09:25:45.185Z,170.2
2018-12-01T09:26:45.145Z,170.1
2018-12-01T09:27:45.101Z,170
2018-12-01T09:28:45.198Z,170
2018-12-01T09:29:45.153Z,170
2018-12-01T09:30:45.223Z,170
2018-12-01T09:31:45.240Z,170
2018-12-01T09:32:45.186Z,177.6
2018-12-01T09:33:45.238Z,184.8
2018-12-01T09:34:45.265Z,188.9
2018-12-01T09:35:45.096Z,190.8
2018-12-01T09:36:45.208Z,197.6
2018-12-01T09:37:45.168Z,212.7
2018-12-01T09:38:45.431Z,231.5
2018-12-01T09:39:45.159Z,248
2018-12-01T09:40:45.108Z,238.7
2018-12-01T09:41:45.165Z,214.9
2018-12-01T09:42:45.164Z,200.1
2018-12-01T09:43:45.229Z,206.6
2018-12-01T09:44:45.119Z,215.1
2018-12-01T09:45:45.205Z,220.2
2018-12-01T09:46:45.116Z,219.7
2018-12-01T09:47:45.184Z,219.4
2018-12-01T09:48:45.214Z,205.1
2018-12-01T09:49:45.184Z,210
2018-12-01T09:50:45.248Z,217.8
2018-12-01T09:51:45.088Z,218.3
2018-12-01T09:52:45.156Z,220.6
2018-12-01T09:53:45.142Z,226.5
2018-12-01T09:54:45.165Z,234.4
2018-12-01T09:55:45.235Z,235.3
2018-12-01T09:56:45.188Z,235.4
2018-12-01T09:57:45.165Z,239.9
2018-12-01T09:58:45.170Z,238
2018-12-01T09:59:45.199Z,240.4
2018-12-01T10:00:45.235Z,234
2018-12-01T10:01:45.205Z,238.4
2018-12-01T10:02:45.094Z,240.8
2018-12-01T10:03:45.170Z,230.6
2018-12-01T10:04:45.179Z,222.1
2018-12-01T10:05:45.300Z,211.4
2018-12-01T10:06:45.169Z,202.1
2018-12-01T10:07:45.130Z,207.6
2018-12-01T10:08:45.089Z,207
2018-12-01T10:09:45.213Z,201.9
2018-12-01T10:10:45.230Z,213.4
2018-12-01T10:11:50.363Z,226
2018-12-01T10:12:45.235Z,255.7
2018-12-01T10:13:45.127Z,271.1
2018-12-01T10:14:45.230Z,277.4
2018-12-01T10:15:45.162Z,280.2
2018-12-01T10:16:45.384Z,281.4
2018-12-01T10:17:45.156Z,282
2018-12-01T10:18:45.098Z,282.3
2018-12-01T10:19:45.083Z,282.4
2018-12-01T10:20:45.159Z,286
2018-12-01T10:21:45.282Z,296.2
2018-12-01T10:22:45.194Z,262
2018-12-01T10:23:45.171Z,244.5
2018-12-01T10:24:45.079Z,227.6
2018-12-01T10:25:45.167Z,234.4
2018-12-01T10:26:45.244Z,225.2
2018-12-01T10:27:45.161Z,220.1
2018-12-01T10:28:45.331Z,224.3
2018-12-01T10:29:45.085Z,226.2
2018-12-01T10:30:45.172Z,208.9
2018-12-01T10:31:45.084Z,197.6
2018-12-01T10:32:45.127Z,204.2
2018-12-01T10:33:45.134Z,210
2018-12-01T10:34:45.150Z,212.7
2018-12-01T10:35:45.101Z,212.9
2018-12-01T10:36:45.231Z,189.9
2018-12-01T10:37:45.153Z,178.9
2018-12-01T10:38:45.166Z,174.1
2018-12-01T10:39:45.140Z,171.9
2018-12-01T10:40:45.093Z,170.9
2018-12-01T10:41:45.273Z,170.4
2018-12-01T10:42:45.165Z,170.2
2018-12-01T10:43:45.146Z,170.1
2018-12-01T10:44:45.144Z,170
2018-12-01T10:45:45.144Z,170
2018-12-01T10:46:45.081Z,170
2018-12-01T10:47:45.169Z,170
2018-12-01T10:48:45.193Z,170
2018-12-01T10:49:45.083Z,192.5
2018-12-01T10:50:45.168Z,220
2018-12-01T10:51:45.109Z,229.6
2018-12-01T10:52:45.145Z,224.6
2018-12-01T10:53:45.201Z,220.9
2018-12-01T10:54:45.188Z,217.7
2018-12-01T10:55:45.280Z,216.2
2018-12-01T10:56:45.115Z,231.1
2018-12-01T10:57:45.134Z,237.3
2018-12-01T10:58:45.153Z,245.3
2018-12-01T10:59:45.137Z,222.1
2018-12-01T11:00:45.225Z,214.1
2018-12-01T11:01:45.153Z,218
2018-12-01T11:02:45.088Z,223.3
2018-12-01T11:03:45.165Z,228.8
2018-12-01T11:04:45.186Z,238.7
2018-12-01T11:05:45.265Z,241.6
2018-12-01T11:06:45.131Z,240
2018-12-01T11:07:45.286Z,233.2
2018-12-01T11:08:47.091Z,229.6
2018-12-01T11:09:46.429Z,221.9
2018-12-01T11:10:45.191Z,228.3
2018-12-01T11:11:45.199Z,230
2018-12-01T11:12:45.183Z,235.6
2018-12-01T11:13:45.174Z,236
2018-12-01T11:14:45.099Z,226.2
2018-12-01T11:15:45.219Z,237.5
2018-12-01T11:16:45.437Z,248.1
2018-12-01T11:17:45.163Z,242.4
2018-12-01T11:18:45.191Z,227.5
2018-12-01T11:19:45.178Z,231.1
2018-12-01T11:20:45.171Z,225.7
2018-12-01T11:21:45.168Z,230.7
2018-12-01T11:22:45.215Z,224.3
2018-12-01T11:23:45.205Z,229.4
2018-12-01T11:24:45.150Z,233.9
2018-12-01T11:25:45.177Z,223.4
2018-12-01T11:26:45.214Z,221.2
2018-12-01T11:27:45.140Z,221.3
2018-12-01T11:28:45.250Z,217.5
2018-12-01T11:29:45.083Z,193.7
2018-12-01T11:30:45.228Z,180.5
2018-12-01T11:31:45.200Z,182.1
2018-12-01T11:32:45.632Z,175.5
2018-12-01T11:33:45.120Z,172.5
2018-12-01T11:34:45.112Z,171.2
2018-12-01T11:35:45.082Z,170.5
2018-12-01T11:36:45.201Z,170.3
2018-12-01T11:37:45.243Z,170.1
2018-12-01T11:38:45.226Z,170.1
2018-12-01T11:39:45.152Z,170
2018-12-01T11:40:45.079Z,170
2018-12-01T11:41:45.147Z,170
2018-12-01T11:42:45.199Z,170
2018-12-01T11:43:45.269Z,170
2018-12-01T11:44:45.138Z,170
2018-12-01T11:45:45.150Z,170
2018-12-01T11:46:45.172Z,170
2018-12-01T11:47:45.141Z,170
2018-12-01T11:48:45.220Z,170
2018-12-01T11:49:45.277Z,170
2018-12-01T11:50:45.071Z,179.6
2018-12-01T11:51:45.112Z,186.5
2018-12-01T11:52:45.300Z,189.7
2018-12-01T11:53:45.443Z,191.2
2018-12-01T11:54:45.288Z,191.9
2018-12-01T11:55:45.141Z,192.2
2018-12-01T11:56:45.098Z,192.4
2018-12-01T11:57:45.071Z,202.4
2018-12-01T11:58:45.136Z,209.1
2018-12-01T11:59:45.217Z,212.4
2018-12-01T12:00:45.127Z,213.7
2018-12-01T12:01:46.011Z,213.4
2018-12-01T12:02:45.091Z,214.3
2018-12-01T12:03:45.121Z,211.5
2018-12-01T12:04:45.117Z,212.8
2018-12-01T12:05:45.272Z,213.3
2018-12-01T12:06:45.143Z,221.9
2018-12-01T12:07:45.100Z,228.4
2018-12-01T12:08:45.111Z,217.1
2018-12-01T12:09:45.127Z,189.8
2018-12-01T12:10:45.218Z,178.5
2018-12-01T12:11:45.154Z,173.8
2018-12-01T12:12:45.144Z,168.6
2018-12-01T12:13:45.066Z,145.4
2018-12-01T12:14:45.143Z,134.1
2018-12-01T12:15:45.207Z,129.1
2018-12-01T12:16:45.139Z,133.7
2018-12-01T12:17:45.309Z,141.1
2018-12-01T12:18:45.346Z,152
2018-12-01T12:19:45.149Z,161.8
2018-12-01T12:20:45.122Z,166.2
2018-12-01T12:21:45.200Z,168.2
2018-12-01T12:22:45.163Z,162.2
2018-12-01T12:23:45.092Z,142
2018-12-01T12:24:45.124Z,132.6
2018-12-01T12:25:49.476Z,128.4
2018-12-01T12:26:46.541Z,126.6
2018-12-01T12:27:45.141Z,125.7
2018-12-01T12:28:45.163Z,125.3
2018-12-01T12:29:45.206Z,126.3
2018-12-01T12:30:45.115Z,137.6
2018-12-01T12:31:49.750Z,142.9
2018-12-01T12:32:47.284Z,147.5
2018-12-01T12:33:45.068Z,159.6
2018-12-01T12:34:45.153Z,165.2
2018-12-01T12:35:45.222Z,167.8
2018-12-01T12:36:45.147Z,169
2018-12-01T12:37:45.221Z,169.5
2018-12-01T12:38:45.143Z,169.8
2018-12-01T12:39:45.119Z,169.9
2018-12-01T12:40:45.217Z,170
2018-12-01T12:41:45.133Z,170
2018-12-01T12:42:45.323Z,170
2018-12-01T12:43:45.218Z,170
2018-12-01T12:44:45.241Z,170
2018-12-01T12:45:45.196Z,170.3
2018-12-01T12:46:45.231Z,173.7
2018-12-01T12:47:45.194Z,187.8
2018-12-01T12:48:45.206Z,198.4
2018-12-01T12:49:45.237Z,190.3
2018-12-01T12:50:45.216Z,179.2
2018-12-01T12:51:45.140Z,181.1
2018-12-01T12:52:45.802Z,175.1
2018-12-01T12:53:45.261Z,172.4
2018-12-01T12:54:45.207Z,171.1
2018-12-01T12:55:45.145Z,170.5
2018-12-01T12:56:45.123Z,170.2
2018-12-01T12:57:45.082Z,170.1
2018-12-01T12:58:45.205Z,170.1
2018-12-01T12:59:45.132Z,170
2018-12-01T13:00:45.130Z,170
2018-12-01T13:01:47.168Z,170
2018-12-01T13:02:45.148Z,170
2018-12-01T13:03:45.156Z,170
2018-12-01T13:04:45.244Z,170
2018-12-01T13:05:48.590Z,170
2018-12-01T13:06:45.104Z,170
2018-12-01T13:07:45.075Z,170
2018-12-01T13:08:45.133Z,170
2018-12-01T13:09:46.265Z,170
2018-12-01T13:10:45.552Z,170
2018-12-01T13:11:45.243Z,170
2018-12-01T13:12:46.601Z,170